ADVERTISEMENT

iOS app on App Store Android app on Google Play

2018 \ San Diego Beach and Bay - April 14, 2018

Notes Pages Download Filter By
  1 2 3 4 [5] 6 7 8 9 10 11 12 13 14 15 16 17 18 19




Keyword Exact  
Division

Bib First Name Last Name City State Total Time Division Division Place Overall
748 Laura Spalding Longmont CO 01:54:06 Female 45-49 13 401
328 Kiyumi Brocious Austin TX 01:54:08 Female 30-34 31 402
976 Heather Falardeau San Diego CA 01:54:14 Female 30-34 32 403
343 Janelle Waterman San Diego CA 01:54:15 Female 40-44 17 404
342 Alissa Crans Diamond Bar CA 01:54:18 Female 40-44 18 405
51 YUKA BIZEN San Diego CA 01:54:18 Female 50-54 6 406
1099 Ruth Dewoskin Temecula CA 01:54:24 Female 25-29 40 407
676 Kayla West Safford AZ 01:54:27 Female 18-24 18 408
539 Sergio Reyes Anaheim CA 01:54:28 Male 35-39 51 409
156 Lisa Barringer Mill Valley CA 01:54:30 Female 45-49 14 410
13 Lorina Visico San Diego CA 01:54:30 Female 50-54 7 411
506 Glenn Ward San Diego CA 01:54:34 Male 55-59 8 412
229 Mark Alvarez San Clemente CA 01:54:41 Male 40-44 35 413
211 Brian Savala Long Beach CA 01:54:42 Male 40-44 36 414
1192 Mike Ditter San Diego CA 01:54:43 Male 45-49 35 415
771 Martha Uriarte Mission Viejo CA 01:54:45 Female 35-39 30 416
577 Sean Bellott Thousand Oaks CA 01:54:46 Male 18-24 16 417
661 Sampath Kumar Matheswaran San Diego CA 01:54:47 Male 35-39 52 418
835 Maci Guzman Chula Vista CA 01:54:48 Female 18-24 19 419
673 Courtney Wittner Carlsbad CA 01:54:55 Female 25-29 41 420
643 Kate Petersen San Diego CA 01:54:55 Female 25-29 42 421
310 Natalie Dib San Diego CA 01:54:57 Female 25-29 43 422
667 David Wing San Diego CA 01:55:01 Male 40-44 37 423
508 Daniela Weise San Anselmo CA 01:55:01 Female 45-49 15 424
83 Denise Lepez Escondido CA 01:55:01 Female 40-44 19 425
987 Kevin Martin Murrieta CA 01:55:05 Male 35-39 53 426
376 Marty Garcia Fallbrook CA 01:55:09 Male 55-59 9 427
377 Jamie Garcia Fallbrook CA 01:55:09 Female 18-24 20 428
452 Eric Johnson Lemon Grove CA 01:55:09 Male 25-29 46 429
21 Heidi Sykas La Mesa CA 01:55:10 Female 35-39 31 430
566 Bryan Wagner San Diego CA 01:55:11 Male 40-44 38 431
196 Jennifer Davis Pasadena CA 01:55:12 Female 40-44 20 432
668 Michael Foss Holtville CA 01:55:13 Male 50-54 17 433
559 Michael Skinner Carlsbad CA 01:55:16 Male 65-69 2 434
433 Bryan Symons San Diego CA 01:55:16 Male 55-59 10 435
841 Linda Bowker Phelan CA 01:55:18 Female 18-24 21 436
1139 Maxwell Louie Alamo CA 01:55:22 Male 25-29 47 437
220 Angelica Doria San Diego CA 01:55:25 Female 35-39 32 438
405 Shawna Terry San Diego CA 01:55:25 Female 40-44 21 439
1067 Casey Camacho-Jones San Diego CA 01:55:26 Male 30-34 41 440
552 Bradley Neas San Diego CA 01:55:26 Male 18-24 17 441
1308 Hsunhui Yang Mountain View CA 01:55:27 Female 30-34 33 442
1817 Dustin Hall Sparks NV 01:55:32 Male 30-34 42 443
371 Ryan Larson Scottsbluff NE 01:55:33 Male 35-39 54 444
685 Tim Robertson El Cajon CA 01:55:37 Male 40-44 39 445
1736 Jackie Buchanan Bonita CA 01:55:40 Female 35-39 33 446
1904 Mallory Elms Grapevine TX 01:55:41 Female 18-24 22 447
7 Walton Choy Austin TX 01:55:42 Male 25-29 48 448
177 Erika Batchman Encinitas CA 01:55:42 Female 35-39 34 449
1001 Tracy Safranski Lake Oswego OR 01:55:46 Female 50-54 8 450
466 Peter Lew Laguna Hills CA 01:55:48 Male 55-59 11 451
1137 Craig Christensen Stevenson Ranch CA 01:55:49 Male 65-69 3 452
207 Judith Melville San Diego CA 01:55:49 Female 55-59 2 453
370 Amy Long Scottsbluff NE 01:55:56 Female 25-29 44 454
147 Laura Hurtado Oceanside CA 01:55:56 Female 45-49 16 455
414 Myleah Fury San Diego CA 01:55:56 Female 25-29 45 456
154 Zachary Shull Santa Cruz CA 01:56:03 Male 25-29 49 457
519 Andrew Yu Cupertino CA 01:56:05 Male 18-24 18 458
222 Sarah Doxey Spokane WA 01:56:06 Female 40-44 22 459
113 Jonathan Cohen-Kurzrock San Diego CA 01:56:10 Male 25-29 50 460
84 Alexandra Brown San Diego CA 01:56:14 Female 30-34 34 461
1258 Larry Blizzard Anaheim CA 01:56:14 Male 50-54 18 462
823 Roy Kariok Sherman Oaks CA 01:56:14 Male 35-39 55 463
1085 Jared Nelson San Diego CA 01:56:18 Male 30-34 43 464
1086 Caleigh Meyer San Diego CA 01:56:19 Female 25-29 46 465
1634 Brett West Seattle WA 01:56:22 Male 25-29 51 466
73 Michele Chow San Diego CA 01:56:22 Female 40-44 23 467
774 Victoria Johnson Tempe AZ 01:56:24 Female 18-24 23 468
1572 Irene Trestrail San Diego CA 01:56:25 Female 30-34 35 469
792 Mark Petersen Yorba Linda CA 01:56:30 Male 50-54 19 470
1838 Charlee Garcia Pleasanton CA 01:56:31 Female 18-24 24 471
612 Jemma Johns La Mesa CA 01:56:31 Female 25-29 47 472
327 Dean Reguindin San Diego CA 01:56:32 Male 35-39 56 473
339 Christopher Untalan Pasadena CA 01:56:32 Male 25-29 52 474
1259 Emily Kempkes Orange CA 01:56:33 Female 18-24 25 475
563 Stephanie Le San Diego CA 01:56:33 Female 30-34 36 476
1057 Molly Phillips San Diego CA 01:56:35 Female 30-34 37 477
317 Terence Burrows Scottsdale AZ 01:56:37 Male 50-54 20 478
1472 Merry Whittington San Diego CA 01:56:40 Female 30-34 38 479
564 Glenn Michael Glendale AZ 01:56:44 Male 65-69 4 480
690 Jessica O?Brien La Mesa CA 01:56:46 Female 25-29 48 481
314 Bryan Briggs Powell OH 01:56:46 Male 30-34 44 482
686 Casey O?Brien La Mesa CA 01:56:46 Male 30-34 45 483
584 Matt Mcginnis La Canada CA 01:56:50 Male 55-59 12 484
650 Scott Ybarrondo San Diego CA 01:56:52 Male 50-54 21 485
268 Suzanne Brown San Diego CA 01:56:54 Female 35-39 35 486
269 Thomas Basham San Diego CA 01:56:55 Male 35-39 57 487
689 Megan Wagoner Riverside CA 01:56:56 Female 30-34 39 488
1471 Hugh McGinness Chula Vista CA 01:56:59 Male 45-49 36 489
890 Brent Goldberg Riverside CA 01:57:00 Male 45-49 37 490
725 Pedro Reyes Escondido CA 01:57:04 Male 30-34 46 491
623 Troy Smith San Diego CA 01:57:04 Male 40-44 40 492
743 Jeff Stephens Pasadena CA 01:57:07 Male 50-54 22 493
111 Sara Bollinger Owings Mills MD 01:57:07 Female 18-24 26 494
1352 Rika Tejima Pasadena CA 01:57:07 Female 45-49 17 495
581 Kimberly Gustafson Imperial CA 01:57:08 Female 30-34 40 496
118 Lewis Dorsey Sacramento CA 01:57:11 Male 35-39 58 497
429 Juan Garcia Escondido CA 01:57:12 Male 40-44 41 498
1861 Micah Hillis Fullerton CA 01:57:18 Male 30-34 47 499
459 Jacob Farrell San Diego CA 01:57:19 Male 18-24 19 500
Notes Pages Download Filter By
  1 2 3 4 [5] 6 7




Keyword Exact  
Division

Bib First Name Last Name City State Total Time Division Division Place Overall
4444 Ziggy Longdon San Marcos CA 00:57:50 Male 30-34 20 401
4503 Jessica Caballero Los Angeles CA 00:57:51 Female 30-34 48 402
4446 Allison Harton San Marcos CA 00:57:51 Female 25-29 48 403
4622 Alma Victorio Green San Diego CA 00:57:53 Female 35-39 42 404
4140 Melissa Flores Temecula CA 00:57:54 Female 35-39 43 405
4397 Armelina Stevens Temecula CA 00:57:55 Female 25-29 49 406
4116 Sandy Holmes Scottsdale AZ 00:58:01 Female 65-69 2 407
4166 Stephanie Reyes Anaheim CA 00:58:04 Female 30-34 49 408
4336 Jeff Morelen Chula Vista CA 00:58:06 Male 30-34 21 409
4335 Kelley Holman Tahoe City CA 00:58:07 Female 25-29 50 410
4402 Jessie Saunders La Jolla CA 00:58:11 Female 25-29 51 411
4212 Elizabeth Herrera Chula Vista CA 00:58:14 Female 35-39 44 412
4447 Anna Majul Vista CA 00:58:17 Male 30-34 22 413
4307 Leslie Kang La Mirada CA 00:58:17 Female 50-54 25 414
4634 Jamie Trujillo Park City UT 00:58:19 Female 30-34 50 415
4572 tamara loera Hemet CA 00:58:20 Female 45-49 28 416
4022 Michelle Anderson Huntington Beach CA 00:58:24 Female 45-49 29 417
4306 Susan Cho Culver City CA 00:58:24 Female 35-39 45 418
4340 Abby Cleary La Jolla CA 00:58:29 Female 30-34 51 419
4529 Kathie Zwick Riverside CA 00:58:29 Female 65-69 3 420
4356 Teresa Arellano San Diego CA 00:58:32 Female 30-34 52 421
4454 Stacy Lopez Lopez Vista CA 00:58:33 Female 40-44 34 422
4676 Philip Bates Irvine CA 00:58:39 Male 55-59 22 423
4675 Tonyce Bates Irvine CA 00:58:41 Female 55-59 11 424
4258 Ginny Mugg San Marcos CA 00:58:46 Female 70-74 1 425
4406 Bobbie Kmet Palmdale CA 00:58:48 Female 55-59 12 426
4071 Benjamin Zen San Diego CA 00:58:52 Male 25-29 16 427
4573 Nathalie Zepek Hemet CA 00:59:01 Female 45-49 30 428
4417 Summer Travis San Diego CA 00:59:04 Female 45-49 31 429
4284 Serina Staton San Diego CA 00:59:06 Female 45-49 32 430
4045 Don Hall Tustin CA 00:59:07 Male 50-54 13 431
4044 Louise Hall Tustin CA 00:59:07 Female 50-54 26 432
4441 Ashley Filgueras Los Angeles CA 00:59:16 Female 25-29 52 433
4648 Gabriela Leon Whittier CA 00:59:32 Female 25-29 53 434
4329 Rommyna Keeran Chula Vista CA 00:59:34 Female 35-39 46 435
4416 Alani Keeran Chula Vista CA 00:59:35 Female 1-12 2 436
4353 Yvonne McBride San Diego CA 00:59:41 Female 30-34 53 437
2207 Kris rios San Diego CA 00:59:56 Female 35-39 47 438
4295 Chelsea Conroy Pico Rivera CA 00:59:57 Female 25-29 54 439
4244 Ann Kahn Saint Paul MN 00:59:58 Female 30-34 54 440
4650 Amy Uruburu Carlsbad CA 01:00:03 Female 30-34 55 441
4651 Craig Williams San Diego CA 01:00:08 Male 30-34 23 442
4165 Evelia Jarvis San Diego CA 01:00:12 Female 30-34 56 443
4099 Linda Protopapaz San Diego CA 01:00:15 Female 50-54 27 444
4098 Joseph Ramos San Diego CA 01:00:16 Female 30-34 57 445
4708 Margaret Lavigne CA 01:00:16 Female 60-64 8 446
4596 Meaghan Peterson San Diego CA 01:00:19 Female 25-29 55 447
4595 Kendra Wilbur San Diego CA 01:00:20 Female 35-39 48 448
4286 Diana Lu El Monte CA 01:00:21 Female 30-34 58 449
4038 Lanette Gardiner San Diego CA 01:00:21 Female 30-34 59 450
4432 Tammy La Barbera Murrieta CA 01:00:21 Female 45-49 33 451
4285 Margie Wong San Diego CA 01:00:21 Female 40-44 35 452
4252 Beth Herring San Diego CA 01:00:21 Female 40-44 36 453
4150 Andrea Kennedy Imperial Beach CA 01:00:22 Female 35-39 49 454
4413 Jennifer Smith Huntington Beach CA 01:00:25 Female 45-49 34 455
4545 Ingrid Weber Irvine CA 01:00:31 Female 45-49 35 456
4680 Sena Cole San Diego CA 01:00:32 Female 45-49 36 457
4126 Carmel Imani Corona CA 01:00:40 Female 25-29 56 458
4576 Tania Goodfried Corona CA 01:00:42 Female 45-49 37 459
4577 Amy Ellis Santa Rosa CA 01:00:45 Female 35-39 50 460
1982 Ronni Cleveland Gilbert AZ 01:00:53 Female 55-59 13 461
4322 Vanessa Higuera Hemet CA 01:00:53 Female 40-44 37 462
4345 Mirna Huynh Corona CA 01:00:55 Female 45-49 38 463
3498 Michael Morton San Diego CA 01:00:55 Male 60-64 8 464
4246 Theresa Sharpe Fallbrook CA 01:00:56 Female 35-39 51 465
4089 Jenn Karel San Diego CA 01:01:00 Female 30-34 60 466
4354 Fidel Caballero San Diego CA 01:01:00 Male 25-29 17 467
4088 Kara Stevens San Diego CA 01:01:01 Female 35-39 52 468
4281 Jerry Albert San Diego CA 01:01:19 Male 80-84 1 469
4601 Olene Mendoza Helendale CA 01:01:27 Female 40-44 38 470
4333 Kim Stevens Winchester CA 01:01:31 Female 55-59 14 471
4000 Jessica Galimba Escondido CA 01:01:32 Female 30-34 61 472
4316 Delia Rodriguez Oceanside CA 01:01:33 Female 50-54 28 473
4084 Shelby McWhirter San Diego CA 01:01:49 Female 40-44 39 474
4388 Donna Little Riverside CA 01:01:55 Female 45-49 39 475
4386 Sheri Coughlin Riverside CA 01:01:55 Female 40-44 40 476
4390 Sandy Laird Riverside CA 01:01:55 Female 50-54 29 477
4631 Marcel St Marie Bakersfield CA 01:01:58 Male 40-44 15 478
4135 Erica Plancich San Diego CA 01:02:00 Female 25-29 57 479
4457 Nyla Lopez Vista CA 01:02:05 Female 13-17 6 480
4250 Diane Capps Carlsbad CA 01:02:07 Female 55-59 15 481
4593 Stephanie Capps Bonita CA 01:02:08 Female 25-29 58 482
4078 Lucero Mejia San Diego CA 01:02:12 Female 40-44 41 483
4421 Maricela Portela San Diego CA 01:02:12 Female 50-54 30 484
4679 Kelly Baker San Diego CA 01:02:23 Female 35-39 53 485
4518 Mike Free Riverside CA 01:02:25 Male 55-59 23 486
4517 Ashley Free Cardiff By The Sea CA 01:02:25 Female 25-29 59 487
4139 JUDY SENICA San Diego CA 01:02:34 Male 45-49 13 488
4607 Bo Davis Fort Mcdowell AZ 01:02:38 Male 40-44 16 489
4619 Raquel Nilson Zephyr Cove NV 01:02:40 Female 50-54 31 490
4070 Shartelle Fears Murrieta CA 01:03:20 Female 40-44 42 491
4377 Jesse Locklin San Diego CA 01:03:26 Female 18-24 22 492
4192 Mary Mcalister Santee CA 01:03:31 Female 40-44 43 493
4247 Lindy Fabrey Coronado CA 01:03:54 Female 35-39 54 494
4411 Rene Tovar Thousand Oaks CA 01:03:56 Male 30-34 24 495
4391 Neha Viswanathan Campbell CA 01:04:02 Female 25-29 60 496
4703 Kelly Savago San Diego CA 01:04:05 Female 35-39 55 497
4054 Raquel Juncal San Ysidro CA 01:04:05 Female 35-39 56 498
4455 Nicole Lopez Oceanside CA 01:04:29 Female 25-29 61 499
4636 Jennifer Benito San Diego CA 01:04:38 Female 50-54 32 500
Notes Pages Download Filter By
  1 2 3 4 [5] 6 7 8




Keyword Exact  
Division

Bib First Name Last Name City State Total Time Division Division Place Overall
3301 Jennifer Payne Rancho Palos Verdes CA 00:42:08 Female 45-49 15 401
3359 Audrey Hwang Los Angeles CA 00:42:09 Female 40-44 19 402
3200 Kristen Pauli Chula Vista CA 00:42:18 Female 40-44 20 403
3303 Taylor Larimore San Diego CA 00:42:23 Female 50-54 8 404
3025 Phillip Futrick Newtown PA 00:42:24 Male 30-34 20 405
3476 Annie Kaftor San Diego CA 00:42:24 Female 25-29 46 406
3024 Marguerite Emhof Newtown PA 00:42:24 Female 25-29 47 407
3357 Julio Jimenez Redlands CA 00:42:26 Male 30-34 21 408
3591 Charniece Andrews Banning CA 00:42:27 Female 40-44 21 409
3661 Anne-Marie Kubasek Whittier CA 00:42:37 Female 55-59 15 410
3537 Pamela Swen-Romero San Diego CA 00:42:41 Female 55-59 16 411
3253 Justin Murigu San Diego CA 00:42:48 Male 1-12 16 412
3078 Collin Ott San Diego CA 00:42:52 Male 1-12 17 413
3075 Sarah Ott San Diego CA 00:42:52 Female 35-39 38 414
4670 Jared Torstvet Riverside CA 00:42:55 Male 35-39 27 415
3421 Isaac Ott San Diego CA 00:42:56 Male 1-12 18 416
4669 Brixton Torstvet Riverside CA 00:42:56 Female 1-12 16 417
3479 Taylor Schoppmann Kingman AZ 00:43:00 Female 13-17 5 418
3646 Susan Garcia Pleasanton CA 00:43:03 Female 60-64 7 419
3416 Conner Casey San Diego CA 00:43:07 Male 1-12 19 420
3544 Angelica McFall Chula Vista CA 00:43:13 Female 45-49 16 421
3466 James Pudi Pasadena CA 00:43:14 Male 1-12 20 422
3463 Shanelle Huynh Corona CA 00:43:24 Female 13-17 6 423
3324 Leah Dallas San Diego CA 00:43:26 Female 1-12 17 424
3325 Nicole Dallas San Diego CA 00:43:27 Female 25-29 48 425
3461 Isabel Huynh Corona CA 00:43:27 Female 25-29 49 426
3553 Abigail Bonfante Aurora CO 00:43:27 Female 13-17 7 427
3552 Tessa Bonfante Aurora CO 00:43:28 Female 45-49 17 428
3272 Terri Palmer San Diego CA 00:43:38 Female 237 429
3271 Mariza Gesell San Diego CA 00:43:40 Female 50-54 9 430
3266 Krysteena Ferguson El Cajon CA 00:43:41 Female 25-29 50 431
3452 Presley Ritualo San Diego CA 00:43:47 Female 1-12 18 432
3449 Edward Ritualo San Diego CA 00:43:47 Male 40-44 15 433
3321 N. Davenport Ladera Ranch CA 00:43:47 Female 35-39 39 434
3669 Art Montoya Santa Ana CA 00:43:51 Male 55-59 9 435
3047 Madalyn Mazzara Menlo Park CA 00:43:53 Female 13-17 8 436
3643 Claudia Barrera Yuma AZ 00:43:55 Female 40-44 22 437
3629 Robyn Grand San Diego CA 00:43:56 Male 25-29 25 438
3538 Don Romero San Diego CA 00:44:02 Male 50-54 16 439
3092 Lucas Beaghley San Diego CA 00:44:05 Male 1-12 21 440
3700 Claire Tweedle Temecula CA 00:44:05 Female 35-39 40 441
3240 Nena Hylander San Luis Obispo CA 00:44:08 Female 18-24 26 442
4684 Ruren Clemente San Diego CA 00:44:11 Female 25-29 51 443
3330 Sheila Hopkins Maricopa AZ 00:44:21 Female 35-39 41 444
3327 Jennifer Whitlow Monument CO 00:44:24 Female 45-49 18 445
3328 Melissa Robson Tucson AZ 00:44:24 Female 45-49 19 446
3394 Billy L Fuson San Diego CA 00:44:28 Male 30-34 22 447
3098 Liam Fuson San Diego CA 00:44:29 Male 1-12 22 448
3097 Dominique Fuson San Diego CA 00:44:30 Female 35-39 42 449
3649 Amarilis Vargas San Diego CA 00:44:34 Female 35-39 43 450
3576 Gamal Hegazi San Marcos CA 00:44:36 Male 60-64 9 451
3440 James Leeney San Diego CA 00:44:44 Male 40-44 16 452
3439 Jessie Deck San Diego CA 00:44:45 Female 35-39 44 453
3198 Megan Whyley Encinitas CA 00:44:50 Female 1-12 19 454
3194 Beth Whyley Encinitas CA 00:44:50 Female 55-59 17 455
3196 Chris Whyley Encinitas CA 00:44:51 Male 55-59 10 456
3140 Preston Thompson Murrieta CA 00:45:02 Male 1-12 23 457
3181 Emily SLATTERY San Diego CA 00:45:04 Female 45-49 20 458
3139 Quinton Thompson Murrieta CA 00:45:10 Male 13-17 15 459
3169 Linda Bristow Glendale AZ 00:45:18 Female 55-59 18 460
4689 Todd Schurr Long Beach CA 00:45:26 Male 25-29 26 461
3695 Theresa Owens San Diego CA 00:45:27 Female 35-39 45 462
3378 Darnell Belcher San Diego CA 00:45:27 Male 40-44 17 463
3488 Henry Lange Fountain Valley CA 00:45:32 Male 70-74 3 464
3551 Pramod Joshi San Diego CA 00:45:44 Male 50-54 17 465
3464 Bridget Pudi Pasadena CA 00:45:46 Female 35-39 46 466
3465 Fiona Pudi Pasadena CA 00:45:46 Female 1-12 20 467
3243 Breeana Palomino Rogers AR 00:45:50 Female 25-29 52 468
3706 Scott Gamble Vail AZ 00:45:51 Male 60-64 10 469
3434 Alianna Gamble Tucson AZ 00:45:52 Female 1-12 21 470
3520 Tania Knapp San Diego CA 00:45:58 Female 50-54 10 471
3425 Kirsten Smith San Diego CA 00:46:09 Female 50-54 11 472
3401 Donna Lodini Stony Point NY 00:46:13 Female 55-59 19 473
3594 Lashanaye James Hawthorne CA 00:46:18 Male 25-29 27 474
3435 Frank Erf Cupertino CA 00:46:22 Male 50-54 18 475
3192 Marnie Salazar San Diego CA 00:46:27 Female 40-44 23 476
3193 Brooke Salazar San Diego CA 00:46:28 Female 1-12 22 477
1899 Witness Brown Paramount CA 00:46:28 Female 55-59 20 478
3428 Melissa Flohre Valley Center CA 00:46:32 Female 45-49 21 479
3380 Tim Orourke Murrieta CA 00:46:33 Male 65-69 7 480
3381 Noemie Orourke Murrieta CA 00:46:33 Female 55-59 21 481
3467 John Bonno San Diego CA 00:46:43 Male 65-69 8 482
3512 Annemarie Belda Irvine CA 00:47:07 Female 30-34 31 483
3429 Heather Crawford Valley Center CA 00:47:07 Female 40-44 24 484
3415 Maricris Cawile San Diego CA 00:47:08 Female 40-44 25 485
3427 David Flohre San Diego CA 00:47:08 Male 50-54 19 486
3365 Elvira Castillo Riverside CA 00:47:13 Female 55-59 22 487
3522 Diane Zamora Chula Vista CA 00:47:20 Female 50-54 12 488
3454 Carmina Stopczynski Chula Vista CA 00:47:21 Female 45-49 22 489
3117 Susan Nicholas San Diego CA 00:47:21 Female 65-69 2 490
3703 Gayle Heifetz San Pedro CA 00:47:25 Female 60-64 8 491
3410 Candice Sledd Los Angeles CA 00:47:31 Female 25-29 53 492
3411 Lori Hicks Los Angeles CA 00:47:34 Female 50-54 13 493
3521 Heather Slater La Mesa CA 00:47:39 Female 40-44 26 494
3109 Celine Keshavarzi Bonsall CA 00:47:42 Female 18-24 27 495
3108 Megan Maero San Marcos CA 00:47:43 Female 18-24 28 496
3142 Elli Thompson Murrieta CA 00:47:43 Female 1-12 23 497
3231 Robert Armstrong Chula Vista CA 00:47:44 Male 40-44 18 498
3230 Jennifer Armstrong Chula Vista CA 00:47:44 Female 40-44 27 499
3690 Mikaylah Fowzer Escondido CA 00:47:44 Female 1-12 24 500